createdAt,value
2019-02-28T00:02:27.474Z,85.70
2019-02-28T00:04:56.197Z,85.50
2019-02-28T00:07:25.207Z,85.70
2019-02-28T00:09:54.215Z,85.80
2019-02-28T00:12:22.985Z,86.10
2019-02-28T00:14:51.819Z,86.00
2019-02-28T00:17:20.579Z,85.80
2019-02-28T00:19:49.626Z,86.20
2019-02-28T00:22:18.400Z,86.10
2019-02-28T00:24:47.210Z,86.10
2019-02-28T00:27:21.002Z,85.90
2019-02-28T00:29:46.677Z,86.00
2019-02-28T00:32:15.443Z,80.40
2019-02-28T00:34:44.514Z,76.20
2019-02-28T00:37:13.236Z,74.10
2019-02-28T00:39:42.227Z,70.00
2019-02-28T00:42:10.966Z,67.30
2019-02-28T00:44:39.690Z,67.70
2019-02-28T00:47:08.456Z,67.00
2019-02-28T00:49:37.178Z,69.00
2019-02-28T00:52:06.129Z,66.10
2019-02-28T00:54:35.343Z,67.20
2019-02-28T00:57:04.080Z,68.10
2019-02-28T00:59:32.856Z,68.90
2019-02-28T01:02:01.576Z,69.70
2019-02-28T01:04:30.897Z,70.20
2019-02-28T01:06:59.982Z,70.20
2019-02-28T01:09:30.227Z,71.60
2019-02-28T01:11:59.452Z,71.90
2019-02-28T01:14:28.454Z,72.10
2019-02-28T01:16:57.215Z,71.40
2019-02-28T01:19:25.983Z,71.80
2019-02-28T01:21:55.374Z,72.60
2019-02-28T01:24:24.892Z,72.60
2019-02-28T01:26:53.634Z,73.20
2019-02-28T01:29:22.370Z,73.60
2019-02-28T01:31:51.137Z,73.20
2019-02-28T01:34:20.090Z,74.10
2019-02-28T01:36:49.586Z,73.80
2019-02-28T01:39:18.416Z,73.20
2019-02-28T01:41:47.183Z,72.90
2019-02-28T01:44:15.967Z,72.10
2019-02-28T01:46:44.711Z,71.40
2019-02-28T01:49:13.739Z,71.20
2019-02-28T01:51:42.483Z,71.40
2019-02-28T01:54:11.707Z,71.60
2019-02-28T01:56:40.483Z,71.40
2019-02-28T01:59:09.480Z,70.20
2019-02-28T02:01:38.206Z,70.70
2019-02-28T02:04:07.195Z,70.30
2019-02-28T02:06:35.938Z,68.40
2019-02-28T02:09:08.066Z,69.70
2019-02-28T02:11:36.705Z,68.70
2019-02-28T02:14:07.529Z,67.90
2019-02-28T02:16:36.162Z,62.40
2019-02-28T02:19:05.010Z,49.30
2019-02-28T02:21:34.836Z,40.40
2019-02-28T02:24:04.505Z,30.60
2019-02-28T02:26:33.283Z,33.40
2019-02-28T02:29:02.034Z,29.90
2019-02-28T02:31:31.317Z,27.40
2019-02-28T02:34:00.535Z,26.40
2019-02-28T02:36:29.426Z,22.10
2019-02-28T02:38:58.300Z,18.90
2019-02-28T02:41:27.221Z,17.60
2019-02-28T02:43:56.326Z,14.20
2019-02-28T02:46:25.213Z,14.50
2019-02-28T02:48:54.065Z,11.40
2019-02-28T02:51:22.921Z,8.30
2019-02-28T02:53:51.793Z,8.10
2019-02-28T02:56:20.899Z,7.50
2019-02-28T02:58:49.702Z,8.40
2019-02-28T03:01:18.508Z,7.10
2019-02-28T03:03:47.331Z,6.30
2019-02-28T03:06:16.366Z,6.20
2019-02-28T03:08:45.460Z,5.30
2019-02-28T03:11:14.350Z,4.10
2019-02-28T03:13:44.244Z,4.60
2019-02-28T03:16:13.305Z,4.10
2019-02-28T03:18:42.221Z,3.30
2019-02-28T03:21:15.102Z,3.80
2019-02-28T03:23:41.595Z,3.20
2019-02-28T03:26:10.721Z,2.00
2019-02-28T03:28:39.511Z,1.90
2019-02-28T03:31:14.449Z,1.20
2019-02-28T03:33:38.881Z,1.00
2019-02-28T03:36:07.949Z,1.00
2019-02-28T03:38:37.021Z,1.00
2019-02-28T03:41:05.865Z,1.10
2019-02-28T03:43:42.711Z,1.00
2019-02-28T03:46:06.357Z,1.00
2019-02-28T03:48:36.344Z,1.00
2019-02-28T03:51:05.219Z,1.00
2019-02-28T03:53:34.064Z,1.00
2019-02-28T03:56:08.986Z,1.00
2019-02-28T03:58:42.883Z,1.00
2019-02-28T04:01:10.209Z,1.00
2019-02-28T04:03:39.144Z,1.00
2019-02-28T04:06:07.917Z,1.70
2019-02-28T04:08:36.700Z,2.00
2019-02-28T04:11:05.568Z,2.80
2019-02-28T04:13:34.477Z,3.90
2019-02-28T04:16:09.035Z,3.40
2019-02-28T04:18:33.902Z,4.00
2019-02-28T04:21:02.782Z,4.30
2019-02-28T04:23:35.961Z,5.40
2019-02-28T04:26:02.086Z,5.50
2019-02-28T04:28:30.990Z,5.20
2019-02-28T04:30:59.798Z,7.80
2019-02-28T04:33:28.670Z,7.10
2019-02-28T04:36:00.688Z,9.10
2019-02-28T04:38:27.944Z,8.00
2019-02-28T04:40:58.799Z,8.30
2019-02-28T04:43:27.378Z,8.00
2019-02-28T04:45:57.637Z,10.30
2019-02-28T04:48:26.738Z,11.20
2019-02-28T04:50:55.544Z,9.60
2019-02-28T04:53:24.578Z,10.30
2019-02-28T04:55:53.376Z,9.80
2019-02-28T04:58:22.338Z,11.30
2019-02-28T05:00:52.801Z,10.90
2019-02-28T05:03:21.890Z,10.60
2019-02-28T05:05:50.758Z,9.20
2019-02-28T05:08:19.942Z,9.00
2019-02-28T05:10:48.864Z,7.80
2019-02-28T05:13:17.659Z,7.20
2019-02-28T05:15:46.997Z,6.20
2019-02-28T05:18:16.409Z,5.30
2019-02-28T05:20:45.980Z,5.00
2019-02-28T05:23:15.004Z,4.40
2019-02-28T05:25:43.829Z,4.70
2019-02-28T05:28:12.952Z,4.00
2019-02-28T05:30:42.073Z,4.00
2019-02-28T05:33:10.881Z,3.30
2019-02-28T05:35:39.908Z,3.60
2019-02-28T05:38:08.664Z,3.50
2019-02-28T05:40:41.416Z,3.70
2019-02-28T05:43:08.534Z,3.90
2019-02-28T05:45:37.383Z,3.90
2019-02-28T05:48:06.479Z,3.20
2019-02-28T05:50:35.471Z,3.70
2019-02-28T05:53:06.298Z,3.40
2019-02-28T05:55:39.280Z,3.50
2019-02-28T05:58:08.324Z,3.30
2019-02-28T06:00:37.772Z,3.60
2019-02-28T06:03:06.631Z,3.10
2019-02-28T06:05:35.575Z,2.90
2019-02-28T06:08:04.691Z,2.70
2019-02-28T06:10:33.744Z,2.60
2019-02-28T06:13:02.808Z,2.70
2019-02-28T06:15:34.280Z,2.80
2019-02-28T06:18:04.400Z,3.00
2019-02-28T06:20:33.212Z,2.80
2019-02-28T06:23:02.333Z,3.10
2019-02-28T06:25:31.222Z,2.90
2019-02-28T06:28:00.110Z,3.00
2019-02-28T06:30:31.275Z,3.60
2019-02-28T06:33:00.185Z,3.20
2019-02-28T06:35:28.936Z,3.20
2019-02-28T06:37:57.785Z,3.40
2019-02-28T06:40:26.684Z,3.40
2019-02-28T06:42:55.934Z,3.80
2019-02-28T06:45:24.855Z,4.00
2019-02-28T06:47:53.611Z,3.60
2019-02-28T06:50:22.499Z,4.60
2019-02-28T06:52:51.371Z,4.00
2019-02-28T06:55:23.067Z,4.10
2019-02-28T06:57:51.990Z,4.60
2019-02-28T07:00:21.139Z,4.20
2019-02-28T07:02:50.323Z,4.00
2019-02-28T07:05:24.434Z,3.90
2019-02-28T07:07:50.317Z,3.40
2019-02-28T07:10:19.143Z,2.80
2019-02-28T07:12:48.003Z,3.20
2019-02-28T07:15:16.948Z,3.30
2019-02-28T07:17:47.503Z,1.70
2019-02-28T07:20:16.680Z,2.40
2019-02-28T07:22:45.454Z,3.80
2019-02-28T07:25:14.352Z,4.20
2019-02-28T07:27:43.235Z,4.90
2019-02-28T07:30:17.453Z,5.30
2019-02-28T07:32:44.472Z,6.20
2019-02-28T07:35:13.379Z,7.00
2019-02-28T07:37:42.316Z,6.60
2019-02-28T07:40:15.502Z,6.80
2019-02-28T07:42:42.542Z,7.40
2019-02-28T07:45:12.207Z,8.00
2019-02-28T07:47:41.102Z,7.30
2019-02-28T07:50:10.742Z,7.50
2019-02-28T07:52:39.627Z,8.30
2019-02-28T07:55:09.589Z,8.20
2019-02-28T07:57:38.467Z,7.90
2019-02-28T08:00:17.143Z,8.10
2019-02-28T08:02:41.199Z,7.70
2019-02-28T08:05:10.362Z,8.50
2019-02-28T08:07:39.569Z,9.70
2019-02-28T08:10:12.807Z,9.10
2019-02-28T08:12:41.187Z,9.10
2019-02-28T08:15:21.069Z,8.70
2019-02-28T08:17:46.699Z,8.70
2019-02-28T08:20:16.242Z,8.80
2019-02-28T08:22:45.343Z,8.20
2019-02-28T08:25:14.251Z,9.20
2019-02-28T08:27:43.574Z,8.90
2019-02-28T08:30:16.302Z,8.80
2019-02-28T08:32:47.068Z,8.00
2019-02-28T08:35:15.711Z,9.10
2019-02-28T08:37:44.501Z,7.90
2019-02-28T08:40:15.641Z,6.60
2019-02-28T08:42:45.182Z,4.00
2019-02-28T08:45:14.546Z,3.10
2019-02-28T08:47:43.491Z,2.60
2019-02-28T08:50:18.915Z,1.00
2019-02-28T08:52:45.836Z,1.00
2019-02-28T08:55:15.099Z,1.00
2019-02-28T08:57:43.922Z,1.00
2019-02-28T09:00:15.623Z,1.00
2019-02-28T09:02:44.622Z,1.00
2019-02-28T09:05:13.889Z,1.00
2019-02-28T09:07:43.039Z,1.00
2019-02-28T09:10:14.751Z,1.00
2019-02-28T09:12:43.928Z,1.00
2019-02-28T09:15:13.774Z,1.00
2019-02-28T09:17:42.675Z,1.00
2019-02-28T09:20:11.420Z,1.00
2019-02-28T09:22:40.713Z,1.00
2019-02-28T09:25:11.211Z,1.00
2019-02-28T09:27:40.258Z,1.00
2019-02-28T09:30:13.402Z,1.00
2019-02-28T09:32:42.157Z,1.00
2019-02-28T09:35:14.332Z,1.00
2019-02-28T09:37:41.579Z,1.00
2019-02-28T09:40:12.352Z,1.00
2019-02-28T09:42:41.135Z,1.00
2019-02-28T09:45:13.129Z,1.00
2019-02-28T09:47:42.049Z,1.00
2019-02-28T09:50:13.352Z,1.00
2019-02-28T09:52:42.637Z,1.00
2019-02-28T09:55:11.970Z,1.00
2019-02-28T09:57:40.830Z,1.00
2019-02-28T10:00:14.726Z,1.00
2019-02-28T10:02:44.000Z,1.00
2019-02-28T10:05:14.313Z,1.00
2019-02-28T10:07:43.247Z,1.00
2019-02-28T10:10:17.345Z,1.00
2019-02-28T10:12:45.091Z,1.00
2019-02-28T10:15:16.137Z,1.00
2019-02-28T10:17:45.003Z,1.00
2019-02-28T10:20:16.452Z,1.00
2019-02-28T10:22:47.305Z,1.00
2019-02-28T10:25:16.548Z,1.00
2019-02-28T10:27:45.494Z,1.00
2019-02-28T10:30:16.794Z,1.00
2019-02-28T10:32:45.692Z,1.00
2019-02-28T10:35:14.877Z,1.00
2019-02-28T10:37:43.704Z,1.00
2019-02-28T10:40:17.942Z,1.00
2019-02-28T10:42:45.571Z,1.00
2019-02-28T10:45:14.948Z,1.00
2019-02-28T10:47:43.736Z,1.00
2019-02-28T10:50:14.943Z,1.00
2019-02-28T10:52:43.858Z,1.00
2019-02-28T10:55:12.979Z,1.00
2019-02-28T10:57:41.850Z,1.00
2019-02-28T11:00:14.091Z,1.00
2019-02-28T11:02:43.159Z,1.00
2019-02-28T11:05:18.840Z,1.00
2019-02-28T11:07:48.564Z,1.00
2019-02-28T11:10:17.531Z,1.00
2019-02-28T11:12:46.522Z,1.00
2019-02-28T11:15:18.682Z,1.00
2019-02-28T11:17:47.453Z,1.00
2019-02-28T11:20:22.259Z,1.00
2019-02-28T11:22:47.185Z,1.80
2019-02-28T11:25:16.871Z,1.20
2019-02-28T11:27:45.909Z,1.40
2019-02-28T11:30:16.061Z,1.00
2019-02-28T11:32:44.951Z,1.00
2019-02-28T11:35:14.234Z,1.00
2019-02-28T11:37:46.005Z,1.00
2019-02-28T11:40:13.917Z,1.00
2019-02-28T11:42:42.730Z,1.00
2019-02-28T11:45:14.345Z,1.00
2019-02-28T11:47:43.441Z,1.50
2019-02-28T11:50:12.687Z,1.00
2019-02-28T11:52:41.988Z,1.00
2019-02-28T11:55:11.610Z,1.00
2019-02-28T11:57:41.246Z,1.00
2019-02-28T12:00:21.747Z,1.00
2019-02-28T12:02:53.496Z,1.00
2019-02-28T12:05:21.432Z,1.00
2019-02-28T12:07:50.486Z,1.00
2019-02-28T12:10:19.981Z,1.00
2019-02-28T12:12:48.888Z,1.00
2019-02-28T12:15:18.803Z,1.30
2019-02-28T12:17:47.553Z,1.70
2019-02-28T12:20:16.716Z,2.80
2019-02-28T12:22:49.368Z,2.50
2019-02-28T12:25:17.546Z,2.70
2019-02-28T12:27:46.556Z,4.10
2019-02-28T12:30:18.790Z,3.50
2019-02-28T12:32:47.673Z,3.60
2019-02-28T12:35:16.672Z,3.90
2019-02-28T12:37:45.589Z,4.50
2019-02-28T12:40:16.475Z,4.20
2019-02-28T12:42:45.532Z,4.20
2019-02-28T12:45:17.107Z,3.00
2019-02-28T12:47:45.974Z,2.70
2019-02-28T12:50:15.416Z,3.30
2019-02-28T12:52:48.990Z,2.30
2019-02-28T12:55:15.787Z,2.30
2019-02-28T12:57:44.919Z,3.20
2019-02-28T13:00:16.209Z,3.00
2019-02-28T13:02:47.078Z,2.80
2019-02-28T13:05:16.182Z,2.00
2019-02-28T13:07:45.066Z,2.40
2019-02-28T13:10:15.624Z,3.10
2019-02-28T13:12:48.719Z,3.30
2019-02-28T13:15:16.283Z,4.40
2019-02-28T13:17:45.229Z,4.50
2019-02-28T13:20:18.982Z,4.60
2019-02-28T13:22:47.857Z,5.00
2019-02-28T13:25:19.525Z,4.40
2019-02-28T13:27:47.504Z,4.30
2019-02-28T13:30:18.231Z,4.20
2019-02-28T13:32:47.251Z,3.90
2019-02-28T13:35:18.224Z,3.80
2019-02-28T13:37:47.305Z,4.10
2019-02-28T13:40:16.305Z,3.20
2019-02-28T13:42:45.110Z,3.10
2019-02-28T13:45:22.204Z,3.20
2019-02-28T13:47:47.640Z,1.80
2019-02-28T13:50:18.268Z,2.30
2019-02-28T13:52:52.339Z,2.80
2019-02-28T13:55:20.122Z,2.80
2019-02-28T13:57:49.010Z,3.70
2019-02-28T14:00:22.754Z,3.90
2019-02-28T14:02:53.543Z,4.90
2019-02-28T14:05:22.507Z,5.10
2019-02-28T14:07:51.289Z,4.20
2019-02-28T14:10:20.388Z,4.80
2019-02-28T14:12:49.156Z,4.00
2019-02-28T14:15:20.201Z,5.00
2019-02-28T14:17:49.364Z,5.30
2019-02-28T14:20:18.369Z,6.80
2019-02-28T14:22:47.449Z,6.70
2019-02-28T14:25:17.940Z,7.00
2019-02-28T14:27:46.728Z,7.20
2019-02-28T14:30:15.515Z,6.10
2019-02-28T14:32:45.525Z,5.80
2019-02-28T14:35:16.163Z,6.60
2019-02-28T14:37:44.961Z,6.60
2019-02-28T14:40:14.639Z,7.70
2019-02-28T14:42:44.567Z,7.40
2019-02-28T14:45:14.329Z,7.60
2019-02-28T14:47:43.626Z,7.30
2019-02-28T14:50:15.536Z,7.80
2019-02-28T14:52:43.572Z,8.40
2019-02-28T14:55:14.283Z,9.10
2019-02-28T14:57:43.084Z,8.90
2019-02-28T15:00:16.791Z,9.20
2019-02-28T15:03:04.925Z,10.00
2019-02-28T15:05:34.243Z,9.80
2019-02-28T15:08:03.349Z,10.60
2019-02-28T15:10:34.249Z,10.40
2019-02-28T15:13:04.956Z,11.20
2019-02-28T15:15:36.140Z,11.60
2019-02-28T15:18:05.285Z,12.00
2019-02-28T15:20:37.114Z,12.30
2019-02-28T15:23:06.048Z,11.80
2019-02-28T15:25:36.364Z,12.40
2019-02-28T15:28:06.567Z,12.70
2019-02-28T15:30:35.584Z,13.40
2019-02-28T15:33:06.977Z,13.90
2019-02-28T15:35:36.344Z,13.90
2019-02-28T15:38:08.782Z,14.80
2019-02-28T15:40:36.844Z,15.10
2019-02-28T15:43:05.750Z,15.10
2019-02-28T15:45:36.291Z,15.10
2019-02-28T15:48:06.315Z,15.60
2019-02-28T15:50:36.432Z,15.50
2019-02-28T15:53:07.624Z,15.00
2019-02-28T15:55:36.574Z,15.80
2019-02-28T15:58:06.979Z,16.50
2019-02-28T16:00:37.931Z,16.40
2019-02-28T16:03:09.121Z,16.80
2019-02-28T16:05:42.619Z,16.30
2019-02-28T16:08:10.387Z,16.80
2019-02-28T16:10:40.717Z,17.10
2019-02-28T16:13:09.569Z,17.00
2019-02-28T16:15:38.379Z,17.90
2019-02-28T16:18:08.675Z,17.90
2019-02-28T16:20:38.469Z,17.80
2019-02-28T16:23:07.596Z,18.00
2019-02-28T16:25:36.704Z,18.00
2019-02-28T16:28:07.770Z,18.40
2019-02-28T16:30:37.816Z,18.90
2019-02-28T16:33:06.788Z,18.80
2019-02-28T16:35:35.883Z,19.30
2019-02-28T16:38:06.388Z,20.00
2019-02-28T16:40:36.027Z,19.80
2019-02-28T16:43:05.063Z,20.30
2019-02-28T16:45:37.545Z,20.50
2019-02-28T16:48:07.557Z,21.50
2019-02-28T16:50:36.628Z,22.00
2019-02-28T16:53:05.670Z,22.10
2019-02-28T16:55:34.537Z,23.40
2019-02-28T16:58:03.455Z,23.50
2019-02-28T17:00:32.786Z,24.00
2019-02-28T17:03:04.154Z,24.20
2019-02-28T17:05:32.538Z,25.40
2019-02-28T17:08:01.472Z,25.80
2019-02-28T17:10:31.900Z,26.80
2019-02-28T17:13:26.176Z,27.90
2019-02-28T17:16:17.586Z,28.70
2019-02-28T17:18:46.679Z,29.30
2019-02-28T17:21:17.913Z,29.20
2019-02-28T17:23:45.970Z,29.80
2019-02-28T17:26:16.199Z,29.10
2019-02-28T17:29:04.301Z,29.30
2019-02-28T17:31:49.318Z,29.80
2019-02-28T17:34:23.881Z,30.20
2019-02-28T17:36:50.415Z,29.80
2019-02-28T17:39:19.231Z,30.90
2019-02-28T17:41:48.349Z,31.10
2019-02-28T17:44:48.289Z,31.10
2019-02-28T17:47:54.302Z,31.70
2019-02-28T17:50:39.378Z,32.00
2019-02-28T17:53:31.778Z,32.30
2019-02-28T17:56:45.247Z,32.50
2019-02-28T17:59:54.983Z,31.70
2019-02-28T18:03:09.857Z,31.90
2019-02-28T18:06:35.550Z,31.20
2019-02-28T18:09:54.568Z,31.30
2019-02-28T18:12:36.066Z,31.30
2019-02-28T18:15:24.075Z,31.70
2019-02-28T18:18:29.532Z,31.30
2019-02-28T18:21:17.450Z,29.80
2019-02-28T18:24:27.698Z,30.40
2019-02-28T18:27:21.465Z,29.50
2019-02-28T18:30:14.988Z,28.60
2019-02-28T18:32:45.046Z,27.60
2019-02-28T18:35:13.904Z,28.50
2019-02-28T18:37:45.447Z,27.30
2019-02-28T18:40:14.610Z,28.40
2019-02-28T18:42:43.626Z,28.20
2019-02-28T18:45:15.741Z,28.70
2019-02-28T18:47:44.641Z,28.10
2019-02-28T18:50:13.770Z,28.40
2019-02-28T18:52:42.629Z,27.90
2019-02-28T18:55:11.687Z,27.70
2019-02-28T18:57:40.575Z,28.90
2019-02-28T19:00:13.507Z,28.70
2019-02-28T19:02:45.367Z,28.40
2019-02-28T19:05:14.309Z,28.30
2019-02-28T19:07:43.182Z,29.30
2019-02-28T19:10:12.116Z,29.70
2019-02-28T19:12:41.160Z,29.80
2019-02-28T19:15:10.564Z,29.70
2019-02-28T19:17:39.432Z,30.10
2019-02-28T19:20:10.931Z,30.10
2019-02-28T19:22:39.831Z,30.10
2019-02-28T19:25:08.914Z,31.30
2019-02-28T19:27:37.868Z,30.80
2019-02-28T19:30:09.172Z,31.20
2019-02-28T19:32:38.444Z,31.10
2019-02-28T19:35:07.475Z,31.50
2019-02-28T19:37:36.452Z,32.20
2019-02-28T19:40:06.098Z,32.90
2019-02-28T19:42:35.142Z,33.10
2019-02-28T19:45:08.048Z,33.60
2019-02-28T19:47:37.155Z,34.00
2019-02-28T19:50:07.608Z,34.30
2019-02-28T19:52:36.614Z,34.60
2019-02-28T19:55:05.962Z,34.50
2019-02-28T19:57:34.750Z,34.70
2019-02-28T20:00:04.429Z,34.90
2019-02-28T20:02:33.305Z,35.60
2019-02-28T20:05:02.073Z,35.70
2019-02-28T20:07:30.802Z,34.80
2019-02-28T20:09:59.585Z,35.90
2019-02-28T20:12:28.395Z,35.90
2019-02-28T20:14:57.343Z,36.20
2019-02-28T20:17:26.151Z,36.10
2019-02-28T20:19:55.000Z,36.10
2019-02-28T20:22:23.918Z,35.00
2019-02-28T20:24:52.801Z,35.60
2019-02-28T20:27:21.913Z,36.00
2019-02-28T20:29:55.150Z,35.50
2019-02-28T20:32:21.255Z,34.80
2019-02-28T20:34:50.048Z,34.60
2019-02-28T20:37:18.973Z,34.00
2019-02-28T20:39:48.015Z,32.70
2019-02-28T20:42:17.116Z,33.30
2019-02-28T20:44:45.972Z,33.80
2019-02-28T20:47:14.765Z,34.90
2019-02-28T20:49:43.862Z,35.60
2019-02-28T20:52:12.871Z,35.70
2019-02-28T20:54:41.808Z,35.90
2019-02-28T20:57:10.961Z,34.80
2019-02-28T20:59:39.821Z,34.60
2019-02-28T21:02:09.144Z,35.70
2019-02-28T21:04:37.924Z,36.20
2019-02-28T21:07:06.925Z,34.80
2019-02-28T21:09:44.608Z,36.00
2019-02-28T21:12:07.926Z,36.40
2019-02-28T21:14:37.056Z,36.20
2019-02-28T21:17:06.231Z,36.30
2019-02-28T21:19:35.340Z,37.40
2019-02-28T21:22:04.095Z,38.20
2019-02-28T21:24:32.859Z,39.10
2019-02-28T21:27:01.680Z,39.30
2019-02-28T21:29:30.471Z,39.50
2019-02-28T21:31:59.600Z,40.00
2019-02-28T21:34:28.638Z,40.30
2019-02-28T21:36:57.506Z,41.80
2019-02-28T21:39:26.515Z,42.50
2019-02-28T21:41:55.257Z,43.30
2019-02-28T21:44:24.351Z,43.20
2019-02-28T21:46:53.130Z,43.50
2019-02-28T21:49:22.156Z,44.00
2019-02-28T21:51:50.952Z,43.90
2019-02-28T21:54:19.762Z,44.00
2019-02-28T21:56:48.618Z,43.30
2019-02-28T21:59:17.490Z,44.30
2019-02-28T22:01:48.103Z,43.80
2019-02-28T22:04:17.187Z,43.40
2019-02-28T22:06:46.281Z,43.30
2019-02-28T22:09:15.104Z,42.60
2019-02-28T22:11:43.904Z,42.90
2019-02-28T22:14:12.999Z,41.90
2019-02-28T22:16:42.104Z,41.90
2019-02-28T22:19:10.952Z,41.80
2019-02-28T22:21:40.436Z,40.10
2019-02-28T22:24:09.278Z,39.60
2019-02-28T22:26:38.055Z,39.20
2019-02-28T22:29:06.848Z,39.20
2019-02-28T22:31:45.645Z,39.20
2019-02-28T22:34:20.758Z,39.00
2019-02-28T22:36:49.755Z,39.70
2019-02-28T22:39:18.760Z,40.30
2019-02-28T22:41:47.533Z,40.80
2019-02-28T22:44:16.404Z,42.20
2019-02-28T22:46:45.449Z,42.60
2019-02-28T22:49:14.860Z,43.60
2019-02-28T22:51:43.652Z,44.80
2019-02-28T22:54:12.482Z,44.60
2019-02-28T22:56:41.363Z,44.30
2019-02-28T22:59:10.171Z,44.20
2019-02-28T23:01:39.556Z,44.20
2019-02-28T23:04:08.439Z,44.40
2019-02-28T23:06:37.233Z,44.20
2019-02-28T23:09:07.111Z,45.50
2019-02-28T23:11:35.932Z,45.60
2019-02-28T23:14:05.168Z,45.40
2019-02-28T23:16:34.182Z,46.70
2019-02-28T23:19:02.984Z,48.00
2019-02-28T23:21:31.737Z,47.70
2019-02-28T23:24:00.764Z,48.80
2019-02-28T23:26:29.632Z,47.50
2019-02-28T23:29:06.505Z,47.60
2019-02-28T23:32:31.431Z,48.60
2019-02-28T23:35:00.240Z,48.30
2019-02-28T23:37:29.007Z,47.70
2019-02-28T23:39:57.803Z,47.40
2019-02-28T23:42:26.559Z,47.90
2019-02-28T23:44:55.347Z,48.00
2019-02-28T23:47:24.209Z,48.70
2019-02-28T23:49:52.963Z,46.90
2019-02-28T23:52:22.296Z,46.90
2019-02-28T23:54:51.080Z,45.70
2019-02-28T23:57:19.914Z,46.20
2019-02-28T23:59:49.159Z,45.80
